This is the latest recevied weather packets stored in our database for station/object WA7CUG. If no packets are shown the sender has not sent any weather packets the latest 10 day(s).
| Time | Temp. | Humidity | Pressure | Rain* | Wind** | Luminosity | Snow |
|---|---|---|---|---|---|---|---|
| 1778045824 | 18.33° C | 55% | 1010.4 hPa | 0 mm | - | 0 W/m² | - |
| 1778045522 | 17.78° C | 60% | 1010.2 hPa | 0 mm | - | 0 W/m² | - |
| 1778045220 | 18.89° C | 57% | 1010.3 hPa | 0 mm | - | 0 W/m² | - |
| 1778044917 | 20.56° C | 53% | 1010.1 hPa | 0 mm | - | 0 W/m² | - |
| 1778044609 | 20.56° C | 48% | 1010.3 hPa | 0 mm | - | 0 W/m² | - |
| 1778044305 | 20.56° C | 48% | 1010.3 hPa | 0 mm | - | 0 W/m² | - |
| 1778044004 | 20.56° C | 47% | 1010.1 hPa | 0 mm | - | 0 W/m² | - |
| 1778043701 | 20.56° C | 48% | 1010.2 hPa | 0 mm | - | 0 W/m² | - |
| 1778043397 | 21.11° C | 49% | 1010 hPa | 0 mm | - | 0 W/m² | - |
| 1778043093 | 21.11° C | 46% | 1010.2 hPa | 0 mm | - | 0 W/m² | - |
| 1778042792 | 21.67° C | 47% | 1010 hPa | 0 mm | - | 0 W/m² | - |
| 1778042488 | 21.11° C | 48% | 1010 hPa | 0 mm | - | 0 W/m² | - |
| 1778042185 | 21.67° C | 47% | 1010.1 hPa | 0 mm | - | 0 W/m² | - |
| 1778041884 | 21.67° C | 46% | 1009.9 hPa | 0 mm | - | 0 W/m² | - |
| 1778041582 | 21.67° C | 46% | 1009.6 hPa | 0 mm | - | 0 W/m² | - |
| 1778041280 | 21.67° C | 46% | 1009.7 hPa | 0 mm | - | 0 W/m² | - |
| 1778040979 | 21.67° C | 46% | 1009.6 hPa | 0 mm | - | 0 W/m² | - |
| 1778040675 | 21.67° C | 47% | 1009.8 hPa | 0 mm | - | 0 W/m² | - |
| 1778040373 | 22.22° C | 46% | 1009.6 hPa | 0 mm | - | 0 W/m² | - |
| 1778040069 | 24.44° C | 42% | 1009.3 hPa | 0 mm | - | 0 W/m² | - |
| 1778039766 | 25° C | 39% | 1009.3 hPa | 0 mm | - | 0 W/m² | - |
| 1778039462 | 25° C | 38% | 1009.1 hPa | 0 mm | - | 0 W/m² | - |
| 1778039160 | 25° C | 38% | 1009.3 hPa | 0 mm | - | 0 W/m² | - |
| 1778038856 | 25.56° C | 37% | 1009.3 hPa | 0 mm | - | 0 W/m² | - |
| 1778038554 | 25.56° C | 36% | 1009.3 hPa | 0 mm | - | 0 W/m² | - |
* Rain latest hour (hover to see other rain measurements)
** Current wind speed in m/s (hover to see current wind gust speed)